Time;durP1;ratioP1;P1;durP2;ratioP2;P2;SDS_P1;SDS_P2;PMS_P1;PMS_P2;Temp;Humidity;BMP_temperature;BMP_pressure;BME280_temperature;BME280_humidity;BME280_pressure;Samples;Min_cycle;Max_cycle;Signal;HPM_P1;HPM_P2
2022/01/24 00:01:15;;;;;;;4.07;2.47;;;16.70;58.00;;;;;;5016777;28;20060;-66
2022/01/24 00:03:41;;;;;;;3.47;2.17;;;16.70;58.00;;;;;;5007645;28;20026;-66
2022/01/24 00:06:09;;;;;;;2.65;2.42;;;16.70;58.00;;;;;;5004900;28;20048;-67
2022/01/24 00:08:35;;;;;;;2.63;1.90;;;16.70;57.90;;;;;;5021020;28;20021;-67
2022/01/24 00:11:06;;;;;;;3.47;2.13;;;16.70;58.00;;;;;;5020899;28;20032;-66
2022/01/24 00:16:23;;;;;;;3.17;2.10;;;16.70;57.90;;;;;;5010159;28;20037;-67
2022/01/24 00:26:50;;;;;;;2.88;1.90;;;16.80;57.80;;;;;;5019867;28;20494;-66
2022/01/24 00:29:16;;;;;;;4.63;1.88;;;16.80;57.70;;;;;;5014024;28;20030;-67
2022/01/24 00:31:42;;;;;;;2.17;1.70;;;16.80;57.70;;;;;;5018710;28;20037;-66
2022/01/24 00:34:07;;;;;;;2.55;1.95;;;16.80;57.70;;;;;;5017241;28;20400;-67
2022/01/24 00:36:33;;;;;;;2.97;2.03;;;16.80;57.60;;;;;;5009356;28;20029;-66
2022/01/24 00:38:59;;;;;;;2.90;2.00;;;16.80;57.50;;;;;;5019761;28;20106;-66
2022/01/24 00:41:24;;;;;;;2.55;1.98;;;16.90;57.60;;;;;;5011110;28;20498;-67
2022/01/24 00:46:35;;;;;;;2.72;1.92;;;16.90;57.50;;;;;;5016967;28;20048;-66
2022/01/24 00:56:55;;;;;;;2.83;1.80;;;16.90;57.40;;;;;;5003532;28;20029;-66
2022/01/24 00:59:20;;;;;;;2.05;1.63;;;16.90;57.40;;;;;;5018237;28;20029;-67
2022/01/24 01:01:46;;;;;;;2.38;1.70;;;16.90;57.40;;;;;;5024238;28;20025;-67
2022/01/24 01:04:11;;;;;;;2.22;1.48;;;16.90;57.30;;;;;;5019230;28;20037;-66
2022/01/24 01:06:40;;;;;;;2.05;1.80;;;16.90;57.30;;;;;;5019621;28;20654;-67
2022/01/24 01:20:03;;;;;;;2.42;1.38;;;16.90;57.20;;;;;;5007156;28;20032;-66
2022/01/24 01:22:28;;;;;;;2.85;1.63;;;16.90;57.20;;;;;;5004592;28;20116;-66
2022/01/24 01:24:55;;;;;;;1.50;1.25;;;16.90;57.20;;;;;;5011743;28;20041;-67
2022/01/24 01:27:31;;;;;;;2.28;1.60;;;16.90;57.20;;;;;;5006213;28;20045;-67
2022/01/24 01:30:02;;;;;;;1.58;1.30;;;16.90;57.20;;;;;;5006108;28;20045;-67
2022/01/24 01:35:43;;;;;;;2.65;1.42;;;16.90;57.20;;;;;;5008531;28;20064;-67
2022/01/24 01:38:31;;;;;;;1.58;1.45;;;16.90;57.10;;;;;;5021527;28;20507;-66
2022/01/24 01:57:14;;;;;;;2.17;1.60;;;16.90;57.10;;;;;;5022012;28;20033;-67
2022/01/24 01:59:39;;;;;;;1.60;0.98;;;16.90;57.10;;;;;;5012760;28;20045;-67
2022/01/24 02:02:05;;;;;;;1.45;1.33;;;16.90;57.10;;;;;;5010655;28;20033;-67
2022/01/24 02:04:30;;;;;;;1.40;1.30;;;16.90;57.10;;;;;;5021496;28;20100;-67
2022/01/24 02:06:56;;;;;;;1.55;1.10;;;16.90;57.20;;;;;;5023571;28;20041;-66
2022/01/24 02:09:24;;;;;;;1.42;1.33;;;16.90;57.10;;;;;;5021400;28;20105;-68
2022/01/24 02:11:53;;;;;;;2.67;1.00;;;16.80;57.70;;;;;;5003837;28;20026;-67
2022/01/24 02:14:20;;;;;;;1.65;1.00;;;16.90;57.10;;;;;;4996647;28;20462;-67
2022/01/24 02:16:52;;;;;;;1.05;0.95;;;16.90;57.10;;;;;;5011107;28;20065;-67
2022/01/24 02:19:30;;;;;;;1.17;1.08;;;16.90;57.00;;;;;;5010915;28;20026;-68
2022/01/24 02:24:51;;;;;;;1.27;1.02;;;16.90;57.00;;;;;;5017016;28;20091;-67
2022/01/24 02:27:18;;;;;;;1.38;1.00;;;16.90;57.00;;;;;;5024415;28;20028;-67
2022/01/24 02:29:52;;;;;;;1.58;1.05;;;16.90;56.90;;;;;;5008177;28;20036;-67
2022/01/24 02:32:17;;;;;;;3.90;1.23;;;16.90;56.90;;;;;;5013147;28;20037;-67
2022/01/24 02:34:46;;;;;;;1.08;0.80;;;16.90;56.90;;;;;;5020767;28;20026;-67
2022/01/24 02:37:13;;;;;;;1.40;1.00;;;16.90;56.90;;;;;;5008153;28;20060;-67
2022/01/24 02:39:53;;;;;;;1.30;1.05;;;16.90;56.90;;;;;;5003386;28;20076;-67
2022/01/24 02:51:10;;;;;;;1.58;1.13;;;16.90;56.90;;;;;;5006474;28;20645;-66
2022/01/24 02:53:36;;;;;;;1.27;0.95;;;16.90;56.90;;;;;;5015971;28;20120;-66
2022/01/24 02:56:02;;;;;;;1.60;1.10;;;16.90;56.90;;;;;;5021344;28;20129;-65
2022/01/24 02:58:28;;;;;;;2.30;1.17;;;16.90;56.90;;;;;;4997583;28;20029;-65
2022/01/24 03:00:53;;;;;;;1.00;0.88;;;16.90;56.90;;;;;;5017151;28;20044;-68
2022/01/24 03:03:19;;;;;;;1.20;1.00;;;16.90;56.90;;;;;;5014341;28;20042;-67
2022/01/24 03:05:44;;;;;;;1.08;0.98;;;16.90;56.90;;;;;;5022614;28;20033;-67
2022/01/24 03:08:10;;;;;;;1.48;1.15;;;16.80;56.90;;;;;;5022987;28;20121;-67
2022/01/24 03:10:46;;;;;;;1.35;0.82;;;16.90;56.90;;;;;;5008945;28;20022;-67
2022/01/24 03:15:52;;;;;;;1.30;1.00;;;16.80;56.90;;;;;;5025561;28;20160;-67
2022/01/24 03:18:18;;;;;;;1.23;1.08;;;16.90;56.90;;;;;;5015477;28;20711;-64
2022/01/24 03:20:44;;;;;;;1.00;0.80;;;16.90;56.90;;;;;;5011123;28;20073;-66
2022/01/24 03:23:10;;;;;;;0.88;0.70;;;16.80;56.90;;;;;;5015069;28;20033;-67
2022/01/24 03:25:36;;;;;;;1.67;0.95;;;16.80;56.90;;;;;;5016023;28;20029;-66
2022/01/24 03:28:03;;;;;;;1.33;1.08;;;16.90;56.90;;;;;;5005605;28;20042;-66
2022/01/24 03:30:29;;;;;;;1.63;1.02;;;16.90;56.90;;;;;;5014963;28;20061;-66
2022/01/24 03:32:54;;;;;;;0.73;0.73;;;16.90;56.90;;;;;;5021159;28;20057;-65
2022/01/24 03:35:20;;;;;;;1.40;0.80;;;16.80;56.80;;;;;;5018901;28;20130;-67
2022/01/24 03:37:45;;;;;;;1.05;0.90;;;16.90;56.90;;;;;;5006231;28;20030;-67
2022/01/24 03:40:11;;;;;;;1.00;0.80;;;16.90;56.90;;;;;;5011481;28;20037;-68
2022/01/24 03:42:36;;;;;;;1.10;0.70;;;16.80;56.80;;;;;;5005787;28;20671;-66
2022/01/24 03:45:06;;;;;;;1.15;1.05;;;16.80;56.80;;;;;;5022555;28;20896;-67
2022/01/24 03:50:07;;;;;;;2.10;0.90;;;16.80;56.90;;;;;;5025266;28;20605;-67
2022/01/24 03:52:32;;;;;;;1.13;0.70;;;16.80;56.90;;;;;;5015480;28;20104;-67
2022/01/24 03:54:58;;;;;;;0.80;0.80;;;16.80;56.90;;;;;;5011489;28;20497;-67
2022/01/24 03:57:24;;;;;;;1.02;0.70;;;16.80;56.90;;;;;;5008416;28;20440;-68
2022/01/24 03:59:50;;;;;;;1.50;0.70;;;16.80;57.10;;;;;;5017031;28;20029;-67
2022/01/24 04:02:17;;;;;;;2.20;0.77;;;16.80;56.90;;;;;;5014389;28;20030;-67
2022/01/24 04:04:43;;;;;;;1.17;0.70;;;16.80;57.00;;;;;;5018899;28;20124;-67
2022/01/24 04:07:08;;;;;;;1.75;0.70;;;16.80;57.00;;;;;;5017244;28;20293;-67
2022/01/24 04:09:35;;;;;;;0.98;0.70;;;16.80;57.00;;;;;;5012128;28;20034;-64
2022/01/24 04:12:01;;;;;;;0.75;0.55;;;16.80;57.00;;;;;;5014993;28;20451;-66
2022/01/24 04:22:19;;;;;;;0.75;0.60;;;16.80;57.10;;;;;;5013133;28;20033;-67
2022/01/24 04:24:45;;;;;;;1.48;0.60;;;16.80;57.10;;;;;;5004155;28;20044;-67
2022/01/24 04:27:11;;;;;;;0.85;0.80;;;16.80;57.20;;;;;;5012807;28;20504;-67
2022/01/24 04:29:37;;;;;;;1.38;0.70;;;16.80;57.20;;;;;;5012523;28;20029;-67
2022/01/24 04:32:03;;;;;;;1.33;0.70;;;16.80;57.10;;;;;;5012088;28;20615;-67
2022/01/24 04:34:28;;;;;;;0.80;0.68;;;16.80;57.20;;;;;;5003617;28;20635;-66
2022/01/24 04:36:54;;;;;;;1.52;0.50;;;16.80;57.20;;;;;;5013971;28;20062;-66
2022/01/24 04:39:19;;;;;;;0.63;0.55;;;16.80;57.20;;;;;;5004706;28;20029;-67
2022/01/24 04:41:48;;;;;;;1.95;0.60;;;16.80;57.20;;;;;;5009075;28;20053;-67
2022/01/24 04:44:43;;;;;;;0.98;0.75;;;16.80;57.20;;;;;;5025031;28;20029;-65
2022/01/24 04:47:25;;;;;;;0.65;0.63;;;16.80;57.30;;;;;;5008164;28;20141;-66
2022/01/24 04:55:04;;;;;;;1.45;0.60;;;16.80;57.20;;;;;;5014470;28;20033;-66
2022/01/24 04:57:29;;;;;;;0.82;0.68;;;16.70;57.20;;;;;;5008593;28;20084;-66
2022/01/24 04:59:57;;;;;;;0.82;0.60;;;16.80;57.30;;;;;;5013710;28;20398;-66
2022/01/24 05:02:23;;;;;;;0.60;0.60;;;16.80;57.30;;;;;;5006380;28;20030;-67
2022/01/24 05:04:49;;;;;;;0.98;0.68;;;16.80;57.30;;;;;;5020242;28;20061;-67
2022/01/24 05:07:15;;;;;;;0.77;0.63;;;16.70;57.30;;;;;;5018766;28;20050;-66
2022/01/24 05:09:50;;;;;;;0.70;0.60;;;16.80;57.50;;;;;;5012830;28;20656;-67
2022/01/24 05:12:26;;;;;;;;;;;16.70;57.40;;;;;;5010583;28;20041;-67
2022/01/24 05:25:48;;;;;;;0.60;0.60;;;16.80;57.30;;;;;;5017353;28;20570;-67
2022/01/24 05:28:14;;;;;;;0.50;0.50;;;16.80;57.40;;;;;;5009508;28;20038;-67
2022/01/24 05:30:39;;;;;;;1.95;0.63;;;16.80;57.30;;;;;;5004050;28;20037;-67
2022/01/24 05:33:04;;;;;;;1.20;0.60;;;16.80;57.30;;;;;;5011706;28;20029;-67
2022/01/24 05:35:30;;;;;;;1.50;0.50;;;16.80;57.30;;;;;;5011707;28;20033;-66
2022/01/24 05:37:55;;;;;;;1.13;0.60;;;16.80;57.20;;;;;;5008787;28;20087;-66
2022/01/24 05:40:21;;;;;;;0.43;0.35;;;16.80;57.20;;;;;;5012179;28;20494;-67
2022/01/24 05:42:46;;;;;;;0.65;0.50;;;16.80;57.20;;;;;;5010807;28;20037;-67
2022/01/24 05:45:12;;;;;;;0.90;0.60;;;16.80;57.20;;;;;;5010106;28;20041;-66
2022/01/24 05:47:37;;;;;;;1.00;0.90;;;16.90;57.20;;;;;;5012178;28;20034;-67
2022/01/24 05:50:04;;;;;;;1.10;0.73;;;16.80;57.10;;;;;;5018916;28;20244;-67
2022/01/24 05:52:29;;;;;;;0.93;0.60;;;16.80;57.10;;;;;;5017469;28;20794;-66
2022/01/24 05:54:55;;;;;;;0.80;0.60;;;16.80;57.10;;;;;;5004080;28;20038;-67
2022/01/24 05:57:20;;;;;;;1.38;0.77;;;16.80;57.10;;;;;;5003400;28;20027;-67
2022/01/24 05:59:46;;;;;;;0.73;0.43;;;16.90;57.10;;;;;;5004757;28;20429;-66
2022/01/24 06:02:11;;;;;;;0.73;0.65;;;16.80;57.10;;;;;;5003839;28;20763;-67
2022/01/24 06:04:36;;;;;;;1.08;0.70;;;16.90;57.10;;;;;;5006438;28;20026;-67
2022/01/24 06:07:02;;;;;;;1.48;0.75;;;16.90;57.10;;;;;;5010266;28;20091;-67
2022/01/24 06:09:28;;;;;;;0.82;0.52;;;16.80;57.00;;;;;;5013802;28;20532;-66
2022/01/24 06:11:53;;;;;;;0.82;0.50;;;16.80;57.00;;;;;;5023713;28;20037;-66
2022/01/24 06:14:19;;;;;;;1.02;0.63;;;16.80;57.00;;;;;;5019972;28;20014;-66
2022/01/24 06:16:44;;;;;;;1.33;0.68;;;16.80;57.00;;;;;;5005572;28;20512;-66
2022/01/24 06:19:10;;;;;;;1.08;0.70;;;16.90;57.00;;;;;;5003375;28;20621;-68
2022/01/24 06:21:35;;;;;;;2.35;1.52;;;16.90;57.10;;;;;;5009747;28;20026;-69
2022/01/24 06:24:01;;;;;;;11.05;5.05;;;16.90;57.30;;;;;;5008057;28;20034;-67
2022/01/24 06:26:27;;;;;;;10.68;5.22;;;16.90;57.50;;;;;;5006348;28;20161;-66
2022/01/24 06:28:52;;;;;;;12.90;6.05;;;16.90;57.50;;;;;;5017849;28;20038;-67
2022/01/24 06:31:19;;;;;;;8.45;5.10;;;16.90;57.70;;;;;;5018953;28;20033;-67
2022/01/24 06:33:44;;;;;;;13.30;4.82;;;16.90;58.00;;;;;;5020371;28;20083;-70
2022/01/24 06:36:09;;;;;;;10.00;4.50;;;16.90;58.30;;;;;;5022185;28;20116;-67
2022/01/24 06:38:35;;;;;;;10.27;4.50;;;16.90;58.30;;;;;;5014833;28;20164;-66
2022/01/24 06:41:01;;;;;;;10.27;4.28;;;16.80;58.30;;;;;;5021542;28;20038;-66
2022/01/24 06:43:26;;;;;;;9.30;3.78;;;16.80;58.40;;;;;;5016354;28;20424;-67
2022/01/24 06:45:52;;;;;;;8.75;4.07;;;16.80;58.40;;;;;;5016558;28;20160;-67
2022/01/24 06:48:18;;;;;;;10.65;3.85;;;16.80;58.30;;;;;;5014759;28;20056;-65
2022/01/24 06:50:44;;;;;;;7.95;3.35;;;16.80;58.30;;;;;;5010980;28;20037;-67
2022/01/24 06:53:09;;;;;;;13.90;3.45;;;16.80;58.10;;;;;;5006594;28;20034;-65
2022/01/24 06:55:35;;;;;;;5.00;2.63;;;16.90;58.20;;;;;;5015402;28;20022;-66
2022/01/24 06:58:00;;;;;;;14.48;3.13;;;16.90;58.10;;;;;;5015262;28;20096;-65
2022/01/24 07:00:26;;;;;;;9.68;3.13;;;16.90;58.00;;;;;;5012422;28;20034;-66
2022/01/24 07:02:53;;;;;;;6.40;3.05;;;16.90;57.90;;;;;;5015205;28;20045;-66
2022/01/24 07:05:18;;;;;;;9.20;3.03;;;16.90;57.70;;;;;;5005953;28;20042;-66
2022/01/24 07:07:44;;;;;;;6.95;3.33;;;16.90;57.60;;;;;;5013591;28;20077;-66
2022/01/24 07:10:10;;;;;;;6.53;3.08;;;16.90;57.50;;;;;;5018632;28;20160;-63
2022/01/24 07:12:35;;;;;;;6.60;2.70;;;16.90;57.40;;;;;;5023392;28;20029;-65
2022/01/24 07:15:07;;;;;;;6.78;2.97;;;16.80;57.30;;;;;;5015678;28;20030;-65
2022/01/24 07:17:57;;;;;;;6.82;3.60;;;16.80;57.30;;;;;;5001790;28;20033;-65
2022/01/24 07:20:18;;;;;;;7.93;3.88;;;16.80;57.10;;;;;;5008881;28;20373;-63
2022/01/24 07:22:43;;;;;;;11.10;4.35;;;16.80;56.90;;;;;;5015211;28;20030;-64
2022/01/24 07:25:09;;;;;;;9.60;5.43;;;16.80;56.90;;;;;;5011864;28;20026;-63
2022/01/24 07:27:35;;;;;;;10.38;5.00;;;16.90;56.80;;;;;;5016590;28;20117;-65
2022/01/24 07:30:01;;;;;;;13.82;7.40;;;16.90;56.80;;;;;;5024728;28;20033;-62
2022/01/24 07:32:28;;;;;;;23.52;9.10;;;16.90;56.90;;;;;;5005266;28;20033;-62
2022/01/24 07:34:54;;;;;;;34.20;17.45;;;16.90;57.00;;;;;;5015946;28;20045;-63
2022/01/24 07:37:21;;;;;;;30.05;14.40;;;16.90;57.70;;;;;;5019671;28;20026;-62
2022/01/24 07:39:47;;;;;;;20.73;11.45;;;16.90;57.50;;;;;;5023096;28;20036;-62
2022/01/24 07:42:26;;;;;;;21.55;11.45;;;16.90;57.30;;;;;;5004755;28;20022;-60
2022/01/24 07:44:52;;;;;;;28.15;11.20;;;16.90;57.20;;;;;;5016343;28;20026;-62
2022/01/24 07:47:17;;;;;;;25.35;11.38;;;16.90;57.10;;;;;;4999573;28;20495;-61
2022/01/24 07:49:43;;;;;;;19.77;11.18;;;16.90;57.10;;;;;;5023241;28;20022;-64
2022/01/24 07:52:08;;;;;;;20.48;10.25;;;16.90;57.10;;;;;;5017505;28;20103;-64
2022/01/24 07:54:34;;;;;;;23.40;11.15;;;16.90;57.00;;;;;;5007134;28;20516;-66
2022/01/24 07:56:59;;;;;;;24.55;10.20;;;16.90;56.90;;;;;;5011471;28;20034;-63
2022/01/24 07:59:25;;;;;;;25.58;11.25;;;16.90;56.90;;;;;;5018941;28;20605;-65
2022/01/24 08:01:50;;;;;;;16.75;9.25;;;16.90;56.90;;;;;;5017795;28;20539;-61
2022/01/24 08:04:16;;;;;;;24.13;10.70;;;16.90;56.90;;;;;;5013182;28;20026;-64
2022/01/24 08:06:43;;;;;;;24.20;11.65;;;16.90;56.80;;;;;;5016827;28;20395;-68
2022/01/24 08:09:09;;;;;;;21.75;11.75;;;16.90;57.20;;;;;;5019990;28;20544;-67
2022/01/24 08:11:35;;;;;;;22.85;11.68;;;16.90;57.70;;;;;;5026638;28;20455;-69
2022/01/24 08:14:01;;;;;;;36.20;15.30;;;16.90;58.00;;;;;;5013983;28;20137;-68
2022/01/24 08:16:26;;;;;;;36.60;17.20;;;16.80;58.60;;;;;;5012407;28;20251;-65
2022/01/24 08:18:52;;;;;;;31.50;15.52;;;16.80;59.20;;;;;;5014409;28;20549;-69
2022/01/24 08:21:18;;;;;;;30.75;16.58;;;16.80;59.50;;;;;;5016731;28;20030;-70
2022/01/24 08:23:44;;;;;;;30.42;16.48;;;16.80;59.60;;;;;;5013786;28;20416;-70
2022/01/24 08:26:09;;;;;;;33.20;16.80;;;16.80;59.70;;;;;;5010300;28;20067;-69
2022/01/24 08:28:35;;;;;;;36.28;15.63;;;16.80;59.70;;;;;;5014451;28;20022;-70
2022/01/24 08:31:01;;;;;;;31.10;15.07;;;16.80;59.80;;;;;;5022325;28;20061;-70
2022/01/24 08:33:26;;;;;;;35.90;14.25;;;16.80;59.70;;;;;;5012721;28;20030;-70
2022/01/24 08:35:52;;;;;;;26.80;14.80;;;16.80;59.80;;;;;;5009379;28;20041;-66
2022/01/24 08:38:18;;;;;;;28.52;14.82;;;16.80;59.70;;;;;;5022597;28;20544;-70
2022/01/24 08:40:46;;;;;;;26.65;14.73;;;16.80;59.90;;;;;;5009675;28;20040;-69
2022/01/24 08:43:12;;;;;;;28.05;14.52;;;16.80;59.70;;;;;;5020367;28;20030;-70
2022/01/24 08:45:48;;;;;;;24.85;13.77;;;16.80;59.70;;;;;;4999884;28;20044;-71
2022/01/24 08:48:15;;;;;;;27.17;13.93;;;16.90;59.70;;;;;;5017390;28;20029;-70
2022/01/24 08:50:41;;;;;;;23.70;12.20;;;16.80;59.60;;;;;;4999570;28;20033;-71
2022/01/24 08:53:07;;;;;;;25.83;13.73;;;16.90;59.50;;;;;;5003701;28;20044;-70
2022/01/24 08:55:33;;;;;;;26.83;12.85;;;16.90;59.50;;;;;;4999255;28;20033;-66
2022/01/24 08:57:59;;;;;;;26.50;12.27;;;16.90;59.40;;;;;;5016656;28;20038;-66
2022/01/24 09:00:24;;;;;;;27.52;13.15;;;16.90;59.50;;;;;;5000392;28;20087;-70
2022/01/24 09:02:50;;;;;;;25.77;13.05;;;16.90;59.40;;;;;;5028334;28;20032;-65
2022/01/24 09:05:17;;;;;;;28.00;12.90;;;16.90;59.40;;;;;;4998871;28;20026;-70
2022/01/24 09:07:44;;;;;;;25.70;11.20;;;16.90;60.00;;;;;;5030926;28;20084;-70
2022/01/24 09:10:10;;;;;;;22.80;11.13;;;16.90;59.40;;;;;;5012419;28;20041;-70
2022/01/24 09:12:35;;;;;;;24.80;11.13;;;16.90;59.30;;;;;;5030124;28;20034;-66
2022/01/24 09:15:01;;;;;;;23.02;11.10;;;16.90;59.30;;;;;;5015387;28;20121;-69
2022/01/24 09:17:26;;;;;;;24.55;10.75;;;16.90;59.20;;;;;;5014825;28;20044;-69
2022/01/24 09:19:52;;;;;;;25.25;11.07;;;16.90;59.20;;;;;;5012057;28;20548;-69
2022/01/24 09:22:17;;;;;;;19.23;10.20;;;16.90;59.20;;;;;;5008041;28;20037;-70
2022/01/24 09:24:43;;;;;;;24.88;11.13;;;16.90;59.20;;;;;;5004300;28;20030;-66
2022/01/24 09:27:08;;;;;;;23.75;10.77;;;16.90;59.20;;;;;;5023201;28;20037;-66
2022/01/24 09:29:34;;;;;;;21.83;10.48;;;16.90;59.10;;;;;;5022984;28;20052;-66
2022/01/24 09:31:59;;;;;;;23.50;11.10;;;16.90;59.20;;;;;;5012223;28;20530;-66
2022/01/24 09:34:25;;;;;;;19.55;10.30;;;16.90;59.20;;;;;;5023809;28;20057;-66
2022/01/24 09:36:50;;;;;;;25.52;9.60;;;16.90;59.20;;;;;;5019786;28;20025;-66
2022/01/24 09:39:16;;;;;;;20.42;9.50;;;16.90;59.10;;;;;;5018072;28;20453;-69
2022/01/24 09:41:42;;;;;;;21.77;9.15;;;16.90;59.20;;;;;;5007061;28;20044;-66
2022/01/24 09:44:07;;;;;;;19.63;9.52;;;16.90;59.20;;;;;;5022521;28;20076;-71
2022/01/24 09:46:36;;;;;;;20.20;10.07;;;16.90;59.10;;;;;;5010890;28;20055;-71
2022/01/24 09:49:02;;;;;;;18.40;8.82;;;16.90;59.10;;;;;;5022124;28;20052;-65
2022/01/24 09:51:28;;;;;;;17.85;9.00;;;16.90;59.20;;;;;;4996221;28;20535;-69
2022/01/24 09:53:53;;;;;;;18.35;8.75;;;16.90;59.10;;;;;;5018693;28;20060;-66
2022/01/24 09:56:19;;;;;;;17.80;8.70;;;16.90;59.00;;;;;;5017972;28;20029;-66
2022/01/24 09:58:44;;;;;;;17.88;8.13;;;16.90;59.00;;;;;;5018320;28;20068;-69
2022/01/24 10:01:10;;;;;;;18.10;8.13;;;16.90;59.10;;;;;;4996189;28;20124;-68
2022/01/24 10:03:36;;;;;;;13.07;7.22;;;16.90;59.00;;;;;;5015163;28;20041;-70
2022/01/24 10:06:01;;;;;;;12.18;7.75;;;16.90;59.00;;;;;;5005877;28;20049;-69
2022/01/24 10:08:29;;;;;;;14.30;7.45;;;16.90;59.00;;;;;;5020415;28;20038;-66
2022/01/24 10:10:56;;;;;;;14.63;7.15;;;16.90;58.90;;;;;;5001338;28;20049;-69
2022/01/24 10:16:30;;;;;;;16.77;7.55;;;16.90;58.90;;;;;;5006408;28;20083;-70
2022/01/24 10:19:18;;;;;;;16.30;7.00;;;16.90;58.90;;;;;;5015827;28;20633;-66
2022/01/24 10:21:49;;;;;;;12.98;7.05;;;16.90;58.90;;;;;;5004066;28;20040;-70
2022/01/24 10:24:31;;;;;;;12.90;6.47;;;16.90;58.90;;;;;;5014411;28;20910;-66
2022/01/24 10:27:05;;;;;;;13.02;6.60;;;16.90;58.80;;;;;;4998084;28;20036;-66
2022/01/24 10:29:30;;;;;;;13.57;6.28;;;16.90;58.90;;;;;;5010643;28;20030;-70
2022/01/24 10:31:55;;;;;;;14.05;6.15;;;16.90;58.80;;;;;;5012131;28;20534;-70
2022/01/24 10:34:34;;;;;;;13.80;6.22;;;16.90;58.80;;;;;;5018912;28;20038;-65
2022/01/24 10:37:00;;;;;;;15.60;6.07;;;16.90;58.80;;;;;;5013806;28;20029;-64
2022/01/24 10:39:42;;;;;;;12.07;5.82;;;16.90;58.90;;;;;;5010661;28;20392;-66
2022/01/24 10:45:18;;;;;;;6.25;4.55;;;16.90;59.70;;;;;;5004129;28;20440;-72
2022/01/24 10:47:47;;;;;;;10.82;5.43;;;16.90;60.00;;;;;;5004375;28;20026;-72
2022/01/24 10:50:19;;;;;;;10.15;4.60;;;16.90;60.20;;;;;;4993486;28;20025;-70
2022/01/24 10:52:44;;;;;;;11.43;5.03;;;16.90;60.50;;;;;;5020614;28;20064;-72
2022/01/24 10:55:21;;;;;;;11.73;5.88;;;16.90;60.50;;;;;;5008467;28;20025;-72
2022/01/24 10:57:49;;;;;;;8.15;4.80;;;16.90;60.50;;;;;;5022252;28;20540;-72
2022/01/24 11:00:20;;;;;;;9.35;4.75;;;16.90;60.60;;;;;;5009142;28;20352;-72
2022/01/24 11:02:47;;;;;;;9.30;4.32;;;16.90;61.10;;;;;;5030353;28;20120;-68
2022/01/24 11:05:16;;;;;;;7.95;4.57;;;16.90;60.50;;;;;;4988813;28;20037;-71
2022/01/24 11:07:57;;;;;;;8.88;4.47;;;16.90;60.40;;;;;;5011237;28;20384;-67
2022/01/24 11:10:23;;;;;;;7.95;4.18;;;16.90;60.40;;;;;;4997381;28;20034;-72
2022/01/24 11:12:48;;;;;;;7.38;4.15;;;16.90;60.40;;;;;;5034576;28;20087;-68
2022/01/24 11:15:14;;;;;;;9.07;4.38;;;16.90;60.40;;;;;;5005448;28;20041;-72
2022/01/24 11:17:40;;;;;;;9.68;4.78;;;16.90;60.30;;;;;;5010978;28;20033;-71
2022/01/24 11:20:09;;;;;;;7.03;3.75;;;16.90;60.40;;;;;;5014336;28;20053;-66
2022/01/24 11:22:40;;;;;;;6.10;3.65;;;16.90;60.30;;;;;;5008186;28;20022;-66
2022/01/24 11:25:08;;;;;;;8.05;3.95;;;16.90;60.50;;;;;;5018897;28;20041;-71
2022/01/24 11:27:33;;;;;;;7.05;3.65;;;16.90;60.60;;;;;;4997793;28;20185;-67
2022/01/24 11:30:02;;;;;;;7.57;3.58;;;16.90;60.70;;;;;;5009402;28;20758;-71
2022/01/24 11:32:33;;;;;;;5.07;2.95;;;16.90;60.80;;;;;;4988019;28;20080;-71
2022/01/24 11:34:59;;;;;;;5.55;3.63;;;16.90;61.00;;;;;;5020659;28;20030;-71
2022/01/24 11:37:54;;;;;;;5.70;3.42;;;16.90;61.00;;;;;;5017470;28;20448;-69
2022/01/24 11:40:20;;;;;;;6.72;3.35;;;17.00;61.10;;;;;;4979233;28;20355;-71
2022/01/24 11:42:47;;;;;;;4.35;2.97;;;17.00;61.00;;;;;;5010130;28;20481;-68
2022/01/24 11:45:16;;;;;;;5.95;3.38;;;17.00;61.20;;;;;;5002209;28;20038;-69
2022/01/24 11:47:42;;;;;;;5.70;3.03;;;17.00;61.20;;;;;;5025311;28;20018;-71
2022/01/24 11:50:27;;;;;;;4.43;2.88;;;17.00;61.20;;;;;;5016908;28;20038;-72
2022/01/24 11:52:54;;;;;;;4.80;3.17;;;17.00;61.20;;;;;;5014670;28;20117;-70
2022/01/24 11:55:31;;;;;;;5.32;3.28;;;17.00;61.20;;;;;;4991961;28;20061;-70
2022/01/24 11:58:04;;;;;;;3.95;2.75;;;17.00;61.50;;;;;;5021280;28;20037;-70
2022/01/24 12:00:34;;;;;;;4.30;3.28;;;17.00;61.20;;;;;;4982337;28;20045;-66
2022/01/24 12:03:02;;;;;;;6.50;2.67;;;17.00;61.20;;;;;;5008319;28;20050;-70
2022/01/24 12:05:31;;;;;;;7.20;2.65;;;17.00;61.30;;;;;;5003697;28;20771;-71
2022/01/24 12:07:57;;;;;;;4.85;2.55;;;17.00;61.50;;;;;;5006252;28;20046;-70
2022/01/24 12:10:33;;;;;;;5.35;2.72;;;17.00;61.80;;;;;;4998469;28;20030;-71
2022/01/24 12:13:01;;;;;;;3.38;1.98;;;17.00;62.00;;;;;;5031279;28;20029;-71
2022/01/24 12:15:39;;;;;;;5.13;2.50;;;17.00;62.00;;;;;;5005057;28;20822;-72
2022/01/24 12:18:05;;;;;;;6.18;2.70;;;17.00;62.20;;;;;;5016315;28;20637;-70
2022/01/24 12:20:31;;;;;;;4.53;2.53;;;17.00;62.00;;;;;;4997004;28;20044;-69
2022/01/24 12:22:57;;;;;;;3.83;2.25;;;17.00;62.00;;;;;;5022472;28;20117;-69
2022/01/24 12:25:52;;;;;;;3.97;2.35;;;17.00;62.10;;;;;;4998696;28;20045;-70
2022/01/24 12:28:19;;;;;;;7.22;2.50;;;17.00;61.90;;;;;;5023948;28;20117;-66
2022/01/24 12:31:03;;;;;;;2.90;2.30;;;17.00;62.10;;;;;;5007684;28;20041;-70
2022/01/24 12:33:39;;;;;;;5.05;2.60;;;17.00;61.90;;;;;;5017114;28;20060;-70
2022/01/24 12:36:06;;;;;;;4.00;1.75;;;17.10;61.80;;;;;;5011672;28;20193;-70
2022/01/24 12:38:49;;;;;;;4.40;2.38;;;17.00;61.70;;;;;;5027157;28;20139;-70
2022/01/24 12:41:28;;;;;;;2.67;1.80;;;17.10;61.80;;;;;;5001678;28;20116;-70
2022/01/24 12:44:11;;;;;;;3.40;1.80;;;17.10;61.70;;;;;;5011851;28;20065;-69
2022/01/24 12:46:36;;;;;;;3.85;2.08;;;17.10;61.70;;;;;;5005941;28;20388;-65
2022/01/24 12:49:06;;;;;;;5.00;2.20;;;17.10;61.60;;;;;;5022022;28;20032;-69
2022/01/24 12:51:35;;;;;;;2.15;1.55;;;17.10;61.70;;;;;;5021301;28;20061;-65
2022/01/24 12:54:02;;;;;;;3.42;1.83;;;17.10;61.50;;;;;;5009943;28;20497;-69
2022/01/24 12:56:29;;;;;;;5.30;2.20;;;17.10;61.40;;;;;;4993930;28;20030;-70
2022/01/24 12:58:54;;;;;;;4.18;2.05;;;17.20;61.40;;;;;;5018644;28;20030;-65
2022/01/24 13:01:20;;;;;;;2.97;1.88;;;17.20;61.30;;;;;;5007261;28;20029;-69
2022/01/24 13:03:49;;;;;;;4.05;1.90;;;17.20;61.20;;;;;;5023134;28;20034;-71
2022/01/24 13:06:16;;;;;;;3.67;2.15;;;17.20;61.80;;;;;;5005373;28;20029;-70
2022/01/24 13:08:57;;;;;;;3.30;1.83;;;17.20;61.10;;;;;;5020314;28;20449;-69
2022/01/24 13:11:22;;;;;;;2.50;1.70;;;17.20;61.00;;;;;;5007540;28;20037;-71
2022/01/24 13:14:31;;;;;;;2.65;1.98;;;17.20;61.00;;;;;;5015366;28;20026;-71
2022/01/24 13:25:23;;;;;;;2.63;1.60;;;17.20;61.00;;;;;;5021703;28;20065;-70
2022/01/24 13:27:55;;;;;;;4.00;1.40;;;17.10;60.90;;;;;;5012080;28;20028;-70
2022/01/24 13:30:26;;;;;;;2.95;1.35;;;17.20;61.00;;;;;;4996516;28;20064;-69
2022/01/24 13:32:57;;;;;;;2.60;1.50;;;17.20;61.00;;;;;;5008488;28;20033;-68
2022/01/24 13:35:33;;;;;;;2.38;1.40;;;17.20;61.00;;;;;;5005396;28;20069;-71
2022/01/24 13:38:08;;;;;;;;;;;17.20;61.00;;;;;;5026027;28;20060;-70
2022/01/24 13:41:03;;;;;;;1.63;1.20;;;17.20;60.90;;;;;;4999524;28;19929;-70
2022/01/24 13:43:36;;;;;;;3.67;1.33;;;17.20;61.00;;;;;;5022128;28;20113;-70
2022/01/24 13:46:12;;;;;;;1.95;1.23;;;17.20;61.00;;;;;;4999342;28;20121;-70
2022/01/24 13:48:57;;;;;;;3.03;1.17;;;17.20;60.90;;;;;;5021548;28;20037;-70
2022/01/24 13:51:25;;;;;;;1.73;1.13;;;17.20;61.60;;;;;;5010186;28;20080;-70
2022/01/24 13:53:55;;;;;;;3.83;1.50;;;17.20;60.90;;;;;;5010086;28;20812;-70
2022/01/24 13:56:34;;;;;;;2.10;1.33;;;17.20;60.90;;;;;;5007690;28;20034;-71
2022/01/24 13:59:13;;;;;;;1.35;1.20;;;17.20;61.00;;;;;;5014779;28;20037;-70
2022/01/24 14:01:51;;;;;;;1.45;1.17;;;17.20;61.10;;;;;;5009888;28;20121;-70
2022/01/24 14:04:25;;;;;;;1.85;1.20;;;17.20;61.00;;;;;;5021000;28;20833;-70
2022/01/24 14:06:54;;;;;;;2.67;1.15;;;17.20;61.00;;;;;;5013407;28;20439;-69
2022/01/24 14:09:20;;;;;;;1.83;1.35;;;17.20;61.00;;;;;;5009515;28;20034;-65
2022/01/24 14:11:47;;;;;;;1.65;1.10;;;17.20;61.00;;;;;;5018795;28;20044;-71
2022/01/24 14:14:17;;;;;;;2.55;1.42;;;17.20;61.00;;;;;;5021394;28;20417;-67
2022/01/24 14:16:58;;;;;;;2.03;1.15;;;17.20;61.00;;;;;;5016512;28;20033;-67
2022/01/24 14:19:31;;;;;;;1.63;1.00;;;17.20;61.10;;;;;;5012028;28;20236;-71
2022/01/24 14:22:10;;;;;;;1.77;1.15;;;17.20;61.40;;;;;;4993219;28;20038;-68
2022/01/24 14:24:49;;;;;;;1.63;1.00;;;17.20;61.60;;;;;;5013480;28;20052;-70
2022/01/24 14:27:35;;;;;;;2.20;1.20;;;17.20;61.70;;;;;;5012593;28;20499;-71
2022/01/24 14:30:26;;;;;;;2.30;1.30;;;17.30;61.80;;;;;;5003291;28;20034;-65
2022/01/24 14:33:06;;;;;;;3.50;1.00;;;17.30;62.00;;;;;;5020469;28;20081;-65
2022/01/24 14:35:37;;;;;;;1.90;1.00;;;17.30;61.90;;;;;;5003824;28;20043;-70
2022/01/24 14:38:03;;;;;;;1.52;1.02;;;17.30;61.80;;;;;;5027963;28;20034;-70